createdAt,value
2018-07-23T00:02:22.853Z,100691.08
2018-07-23T00:04:56.288Z,100687.29
2018-07-23T00:07:29.734Z,100695.82
2018-07-23T00:10:03.292Z,100695.66
2018-07-23T00:12:36.898Z,100699.32
2018-07-23T00:15:10.350Z,100694.17
2018-07-23T00:17:43.945Z,100693.55
2018-07-23T00:20:17.531Z,100693.70
2018-07-23T00:22:51.020Z,100694.31
2018-07-23T00:25:24.658Z,100690.30
2018-07-23T00:27:58.260Z,100693.23
2018-07-23T00:30:31.833Z,100692.27
2018-07-23T00:33:05.343Z,100694.77
2018-07-23T00:35:38.933Z,100689.72
2018-07-23T00:38:12.499Z,100690.27
2018-07-23T00:40:46.019Z,100694.39
2018-07-23T00:43:19.553Z,100694.02
2018-07-23T00:45:53.137Z,100689.05
2018-07-23T00:48:26.679Z,100683.89
2018-07-23T00:51:00.267Z,100687.53
2018-07-23T00:53:33.886Z,100690.67
2018-07-23T00:56:07.501Z,100685.64
2018-07-23T00:58:40.971Z,100692.59
2018-07-23T01:01:14.752Z,100697.36
2018-07-23T01:03:48.354Z,100692.88
2018-07-23T01:06:21.963Z,100692.78
2018-07-23T01:08:55.426Z,100691.03
2018-07-23T01:11:28.803Z,100690.89
2018-07-23T01:14:02.360Z,100686.10
2018-07-23T01:16:36.057Z,100693.39
2018-07-23T01:19:09.661Z,100690.20
2018-07-23T01:21:43.221Z,100688.20
2018-07-23T01:24:16.687Z,100695.17
2018-07-23T01:26:50.228Z,100696.17
2018-07-23T01:29:23.826Z,100700.47
2018-07-23T01:31:57.394Z,100697.66
2018-07-23T01:34:31.133Z,100697.36
2018-07-23T01:37:04.983Z,100698.33
2018-07-23T01:39:38.576Z,100697.17
2018-07-23T01:42:12.305Z,100704.91
2018-07-23T01:44:45.890Z,100704.08
2018-07-23T01:47:19.442Z,100716.66
2018-07-23T01:49:53.007Z,100710.88
2018-07-23T01:52:26.669Z,100707.14
2018-07-23T01:55:00.267Z,100709.02
2018-07-23T01:57:33.856Z,100706.20
2018-07-23T02:00:07.816Z,100703.80
2018-07-23T02:02:41.446Z,100711.25
2018-07-23T02:05:15.020Z,100718.70
2018-07-23T02:07:48.672Z,100714.59
2018-07-23T02:10:22.342Z,100716.89
2018-07-23T02:12:55.878Z,100714.44
2018-07-23T02:15:29.479Z,100715.35
2018-07-23T02:18:03.077Z,100719.14
2018-07-23T02:20:36.678Z,100717.94
2018-07-23T02:23:10.295Z,100725.54
2018-07-23T02:25:43.888Z,100722.42
2018-07-23T02:28:17.483Z,100731.03
2018-07-23T02:30:50.910Z,100731.44
2018-07-23T02:33:24.517Z,100734.47
2018-07-23T02:35:58.135Z,100732.73
2018-07-23T02:38:31.762Z,100728.58
2018-07-23T02:41:05.426Z,100735.91
2018-07-23T02:43:39.018Z,100735.15
2018-07-23T02:46:12.447Z,100738.69
2018-07-23T02:48:46.072Z,100734.03
2018-07-23T02:51:19.682Z,100737.98
2018-07-23T02:53:53.234Z,100743.22
2018-07-23T02:56:26.841Z,100746.67
2018-07-23T02:59:00.415Z,100743.34
2018-07-23T03:01:34.048Z,100745.14
2018-07-23T03:04:07.612Z,100742.30
2018-07-23T03:06:41.306Z,100742.80
2018-07-23T03:09:14.908Z,100740.35
2018-07-23T03:11:48.616Z,100743.84
2018-07-23T03:14:22.213Z,100746.42
2018-07-23T03:16:55.951Z,100748.29
2018-07-23T03:19:29.549Z,100749.13
2018-07-23T03:22:03.192Z,100746.16
2018-07-23T03:24:36.743Z,100745.78
2018-07-23T03:27:10.286Z,100745.08
2018-07-23T03:29:43.882Z,100751.56
2018-07-23T03:32:17.685Z,100758.13
2018-07-23T03:34:51.260Z,100755.30
2018-07-23T03:37:24.745Z,100759.70
2018-07-23T03:39:58.278Z,100766.64
2018-07-23T03:42:31.771Z,100767.88
2018-07-23T03:45:06.368Z,100770.45
2018-07-23T03:47:39.985Z,100768.38
2018-07-23T03:50:13.562Z,100769.59
2018-07-23T03:52:47.176Z,100767.13
2018-07-23T03:55:20.771Z,100762.84
2018-07-23T03:57:54.487Z,100763.80
2018-07-23T04:00:28.079Z,100767.20
2018-07-23T04:03:01.649Z,100765.92
2018-07-23T04:05:35.242Z,100768.16
2018-07-23T04:08:08.843Z,100768.02
2018-07-23T04:10:42.443Z,100771.58
2018-07-23T04:13:16.023Z,100773.44
2018-07-23T04:15:49.654Z,100771.36
2018-07-23T04:18:23.176Z,100776.39
2018-07-23T04:20:56.666Z,100781.43
2018-07-23T04:23:30.256Z,100781.62
2018-07-23T04:26:03.875Z,100781.72
2018-07-23T04:28:37.390Z,100782.69
2018-07-23T04:31:10.914Z,100782.33
2018-07-23T04:33:44.560Z,100790.38
2018-07-23T04:36:18.192Z,100783.81
2018-07-23T04:38:51.734Z,100789.92
2018-07-23T04:41:25.299Z,100791.70
2018-07-23T04:43:58.850Z,100793.47
2018-07-23T04:46:32.504Z,100805.17
2018-07-23T04:49:06.074Z,100800.23
2018-07-23T04:51:39.728Z,100799.60
2018-07-23T04:54:13.337Z,100802.09
2018-07-23T04:56:46.937Z,100805.78
2018-07-23T04:59:20.482Z,100804.53
2018-07-23T05:01:54.155Z,100797.56
2018-07-23T05:04:27.757Z,100803.88
2018-07-23T05:07:01.258Z,100803.73
2018-07-23T05:09:34.815Z,100806.05
2018-07-23T05:12:08.325Z,100807.03
2018-07-23T05:14:41.903Z,100802.09
2018-07-23T05:17:15.531Z,100799.72
2018-07-23T05:19:49.122Z,100805.48
2018-07-23T05:22:22.682Z,100807.57
2018-07-23T05:24:56.218Z,100809.48
2018-07-23T05:27:29.938Z,100810.95
2018-07-23T05:30:03.515Z,100809.78
2018-07-23T05:32:37.147Z,100815.34
2018-07-23T05:35:10.680Z,100815.59
2018-07-23T05:37:44.276Z,100809.66
2018-07-23T05:40:17.785Z,100809.55
2018-07-23T05:42:51.263Z,100811.33
2018-07-23T05:45:24.815Z,100808.38
2018-07-23T05:47:59.208Z,100808.39
2018-07-23T05:50:32.812Z,100812.48
2018-07-23T05:53:06.419Z,100814.25
2018-07-23T05:55:39.917Z,100823.34
2018-07-23T05:58:13.410Z,100823.89
2018-07-23T06:00:46.983Z,100824.64
2018-07-23T06:03:20.502Z,100823.73
2018-07-23T06:05:54.099Z,100830.13
2018-07-23T06:08:27.714Z,100828.05
2018-07-23T06:11:01.326Z,100830.74
2018-07-23T06:13:35.010Z,100818.98
2018-07-23T06:16:08.599Z,100817.96
2018-07-23T06:18:42.287Z,100822.64
2018-07-23T06:21:15.961Z,100827.14
2018-07-23T06:23:49.756Z,100828.32
2018-07-23T06:26:23.266Z,100831.81
2018-07-23T06:28:56.877Z,100830.17
2018-07-23T06:31:30.568Z,100833.05
2018-07-23T06:34:04.000Z,100825.30
2018-07-23T06:36:37.580Z,100830.02
2018-07-23T06:39:12.130Z,100831.11
2018-07-23T06:41:45.664Z,100828.41
2018-07-23T06:44:19.797Z,100825.94
2018-07-23T06:46:53.367Z,100832.03
2018-07-23T06:49:26.926Z,100835.59
2018-07-23T06:52:00.555Z,100839.68
2018-07-23T06:54:34.205Z,100840.67
2018-07-23T06:57:07.643Z,100839.16
2018-07-23T06:59:41.237Z,100841.33
2018-07-23T07:02:14.848Z,100839.33
2018-07-23T07:04:48.443Z,100838.38
2018-07-23T07:07:22.013Z,100830.92
2018-07-23T07:09:55.539Z,100835.77
2018-07-23T07:12:29.021Z,100830.92
2018-07-23T07:15:02.690Z,100825.95
2018-07-23T07:17:36.243Z,100834.41
2018-07-23T07:20:09.907Z,100831.34
2018-07-23T07:22:43.553Z,100836.45
2018-07-23T07:25:17.046Z,100840.76
2018-07-23T07:27:50.578Z,100841.84
2018-07-23T07:30:24.028Z,100834.42
2018-07-23T07:32:57.583Z,100839.05
2018-07-23T07:35:31.320Z,100840.05
2018-07-23T07:38:05.170Z,100838.69
2018-07-23T07:40:38.794Z,100839.64
2018-07-23T07:43:12.326Z,100831.48
2018-07-23T07:45:45.772Z,100837.23
2018-07-23T07:48:19.404Z,100828.60
2018-07-23T07:50:52.976Z,100839.32
2018-07-23T07:53:26.712Z,100832.88
2018-07-23T07:56:00.141Z,100836.27
2018-07-23T07:58:33.733Z,100835.68
2018-07-23T08:01:07.311Z,100838.02
2018-07-23T08:03:40.755Z,100837.91
2018-07-23T08:06:14.452Z,100838.05
2018-07-23T08:08:48.030Z,100835.90
2018-07-23T08:11:21.655Z,100839.88
2018-07-23T08:13:55.088Z,100842.19
2018-07-23T08:16:28.689Z,100837.00
2018-07-23T08:19:02.160Z,100835.15
2018-07-23T08:21:36.262Z,100838.40
2018-07-23T08:24:09.800Z,100840.84
2018-07-23T08:26:43.288Z,100835.84
2018-07-23T08:29:16.819Z,100831.61
2018-07-23T08:31:50.392Z,100832.27
2018-07-23T08:34:23.931Z,100835.47
2018-07-23T08:36:57.490Z,100836.98
2018-07-23T08:39:31.046Z,100831.61
2018-07-23T08:42:04.652Z,100831.54
2018-07-23T08:44:38.257Z,100832.84
2018-07-23T08:47:11.799Z,100833.70
2018-07-23T08:49:45.465Z,100842.24
2018-07-23T08:52:19.032Z,100835.21
2018-07-23T08:54:52.624Z,100833.60
2018-07-23T08:57:26.217Z,100833.80
2018-07-23T08:59:59.870Z,100833.22
2018-07-23T09:02:33.299Z,100831.08
2018-07-23T09:05:07.057Z,100827.70
2018-07-23T09:07:40.602Z,100835.23
2018-07-23T09:10:14.029Z,100826.09
2018-07-23T09:12:47.393Z,100825.22
2018-07-23T09:15:20.768Z,100820.36
2018-07-23T09:17:54.236Z,100824.03
2018-07-23T09:20:27.600Z,100827.76
2018-07-23T09:23:00.979Z,100828.73
2018-07-23T09:25:39.667Z,100829.22
2018-07-23T09:28:13.012Z,100835.73
2018-07-23T09:30:51.600Z,100832.52
2018-07-23T09:33:25.547Z,100830.88
2018-07-23T09:35:58.976Z,100829.83
2018-07-23T09:38:32.328Z,100828.03
2018-07-23T09:41:05.772Z,100825.41
2018-07-23T09:43:39.134Z,100818.25
2018-07-23T09:46:12.521Z,100816.28
2018-07-23T09:48:45.871Z,100812.84
2018-07-23T09:51:19.264Z,100813.46
2018-07-23T09:53:52.703Z,100813.03
2018-07-23T09:56:26.064Z,100810.56
2018-07-23T09:58:59.448Z,100807.52
2018-07-23T10:01:32.861Z,100807.09
2018-07-23T10:04:06.728Z,100798.44
2018-07-23T10:06:40.092Z,100805.27
2018-07-23T10:09:13.440Z,100802.20
2018-07-23T10:11:46.809Z,100802.13
2018-07-23T10:14:20.172Z,100803.34
2018-07-23T10:16:53.653Z,100798.47
2018-07-23T10:19:27.037Z,100801.64
2018-07-23T10:22:00.459Z,100797.03
2018-07-23T10:24:33.889Z,100803.03
2018-07-23T10:27:08.072Z,100798.67
2018-07-23T10:29:41.480Z,100799.17
2018-07-23T10:32:14.858Z,100795.88
2018-07-23T10:34:48.247Z,100796.83
2018-07-23T10:37:21.704Z,100795.89
2018-07-23T10:39:55.113Z,100790.81
2018-07-23T10:42:28.506Z,100784.56
2018-07-23T10:45:01.931Z,100786.11
2018-07-23T10:47:35.275Z,100775.80
2018-07-23T10:50:08.768Z,100781.89
2018-07-23T10:52:42.232Z,100783.08
2018-07-23T10:55:15.671Z,100773.34
2018-07-23T10:57:49.053Z,100779.35
2018-07-23T11:00:22.460Z,100777.54
2018-07-23T11:02:55.850Z,100769.74
2018-07-23T11:05:29.228Z,100776.13
2018-07-23T11:08:02.630Z,100768.04
2018-07-23T11:10:36.100Z,100777.39
2018-07-23T11:13:09.463Z,100769.39
2018-07-23T11:15:42.855Z,100772.08
2018-07-23T11:18:16.255Z,100772.33
2018-07-23T11:20:49.627Z,100772.44
2018-07-23T11:23:22.997Z,100775.30
2018-07-23T11:25:56.412Z,100774.50
2018-07-23T11:28:29.804Z,100774.83
2018-07-23T11:31:03.206Z,100775.02
2018-07-23T11:33:36.568Z,100768.87
2018-07-23T11:36:09.943Z,100775.67
2018-07-23T11:38:43.338Z,100774.52
2018-07-23T11:41:16.720Z,100767.37
2018-07-23T11:43:50.091Z,100765.54
2018-07-23T11:46:24.984Z,100765.91
2018-07-23T11:48:56.848Z,100769.83
2018-07-23T11:51:30.239Z,100768.91
2018-07-23T11:54:04.309Z,100768.13
2018-07-23T11:56:37.728Z,100765.95
2018-07-23T11:59:11.059Z,100769.86
2018-07-23T12:01:44.525Z,100765.78
2018-07-23T12:04:17.931Z,100765.14
2018-07-23T12:06:51.340Z,100764.98
2018-07-23T12:09:24.671Z,100757.95
2018-07-23T12:11:58.138Z,100766.90
2018-07-23T12:14:31.498Z,100764.94
2018-07-23T12:17:04.953Z,100763.94
2018-07-23T12:19:38.334Z,100763.13
2018-07-23T12:22:11.723Z,100765.45
2018-07-23T12:24:45.110Z,100765.45
2018-07-23T12:27:18.495Z,100765.75
2018-07-23T12:29:51.854Z,100759.84
2018-07-23T12:32:25.270Z,100762.30
2018-07-23T12:34:58.625Z,100755.39
2018-07-23T12:37:32.004Z,100753.58
2018-07-23T12:40:05.911Z,100754.83
2018-07-23T12:42:39.248Z,100751.66
2018-07-23T12:45:12.609Z,100752.55
2018-07-23T12:47:46.058Z,100750.04
2018-07-23T12:50:19.440Z,100747.75
2018-07-23T12:52:52.823Z,100746.38
2018-07-23T12:55:26.184Z,100740.03
2018-07-23T12:57:59.611Z,100744.99
2018-07-23T13:00:33.026Z,100742.63
2018-07-23T13:03:06.413Z,100739.31
2018-07-23T13:05:39.757Z,100733.93
2018-07-23T13:08:13.179Z,100736.93
2018-07-23T13:10:46.571Z,100740.84
2018-07-23T13:13:19.935Z,100734.79
2018-07-23T13:15:53.281Z,100742.70
2018-07-23T13:18:26.716Z,100736.30
2018-07-23T13:21:00.094Z,100735.13
2018-07-23T13:23:33.500Z,100737.77
2018-07-23T13:26:07.128Z,100732.16
2018-07-23T13:28:40.565Z,100735.63
2018-07-23T13:31:13.933Z,100730.59
2018-07-23T13:33:47.315Z,100719.36
2018-07-23T13:36:20.701Z,100723.17
2018-07-23T13:38:54.234Z,100725.63
2018-07-23T13:41:27.588Z,100729.77
2018-07-23T13:44:01.015Z,100722.87
2018-07-23T13:46:34.375Z,100716.75
2018-07-23T13:49:07.761Z,100722.05
2018-07-23T13:51:41.142Z,100718.86
2018-07-23T13:54:14.530Z,100723.64
2018-07-23T13:56:47.867Z,100722.81
2018-07-23T13:59:21.228Z,100714.83
2018-07-23T14:01:54.578Z,100718.36
2018-07-23T14:04:27.944Z,100716.89
2018-07-23T14:07:01.336Z,100719.03
2018-07-23T14:09:34.721Z,100718.38
2018-07-23T14:12:08.118Z,100714.42
2018-07-23T14:14:41.491Z,100711.94
2018-07-23T14:17:14.841Z,100721.00
2018-07-23T14:19:48.252Z,100720.77
2018-07-23T14:22:21.797Z,100721.35
2018-07-23T14:24:55.216Z,100720.02
2018-07-23T14:27:28.646Z,100714.44
2018-07-23T14:30:02.141Z,100717.06
2018-07-23T14:32:35.538Z,100709.34
2018-07-23T14:35:08.917Z,100711.49
2018-07-23T14:37:42.306Z,100710.51
2018-07-23T14:40:15.696Z,100719.09
2018-07-23T14:42:49.120Z,100712.00
2018-07-23T14:45:22.485Z,100719.78
2018-07-23T14:47:55.883Z,100712.87
2018-07-23T14:50:29.255Z,100717.15
2018-07-23T14:53:02.675Z,100719.47
2018-07-23T14:55:36.092Z,100716.64
2018-07-23T14:58:09.497Z,100719.41
2018-07-23T15:00:42.890Z,100714.95
2018-07-23T15:03:16.272Z,100711.79
2018-07-23T15:05:49.656Z,100714.38
2018-07-23T15:08:23.038Z,100718.00
2018-07-23T15:10:56.417Z,100714.75
2018-07-23T15:13:29.819Z,100715.52
2018-07-23T15:16:03.214Z,100708.53
2018-07-23T15:18:36.611Z,100706.06
2018-07-23T15:21:09.976Z,100707.50
2018-07-23T15:23:43.356Z,100705.55
2018-07-23T15:26:16.715Z,100702.61
2018-07-23T15:28:50.115Z,100708.81
2018-07-23T15:31:23.514Z,100706.06
2018-07-23T15:33:56.888Z,100708.59
2018-07-23T15:36:30.259Z,100704.30
2018-07-23T15:39:04.576Z,100704.66
2018-07-23T15:41:38.101Z,100705.31
2018-07-23T15:44:11.839Z,100703.05
2018-07-23T15:46:45.089Z,100704.00
2018-07-23T15:49:18.671Z,100694.31
2018-07-23T15:51:52.032Z,100705.16
2018-07-23T15:54:25.456Z,100702.86
2018-07-23T15:56:58.799Z,100697.80
2018-07-23T15:59:32.164Z,100701.31
2018-07-23T16:02:05.547Z,100700.14
2018-07-23T16:04:39.047Z,100702.45
2018-07-23T16:07:12.404Z,100706.23
2018-07-23T16:09:45.864Z,100706.91
2018-07-23T16:12:19.223Z,100701.45
2018-07-23T16:14:52.735Z,100704.39
2018-07-23T16:17:26.205Z,100701.75
2018-07-23T16:20:00.003Z,100703.58
2018-07-23T16:22:33.427Z,100699.13
2018-07-23T16:25:07.580Z,100700.45
2018-07-23T16:27:41.090Z,100694.45
2018-07-23T16:30:15.185Z,100694.61
2018-07-23T16:32:48.592Z,100696.25
2018-07-23T16:35:22.050Z,100692.62
2018-07-23T16:37:55.499Z,100692.83
2018-07-23T16:40:29.504Z,100698.28
2018-07-23T16:43:03.111Z,100692.64
2018-07-23T16:45:36.516Z,100696.78
2018-07-23T16:48:09.869Z,100691.31
2018-07-23T16:50:43.244Z,100697.88
2018-07-23T16:53:16.676Z,100690.15
2018-07-23T16:55:50.083Z,100694.11
2018-07-23T16:58:23.659Z,100686.72
2018-07-23T17:00:57.038Z,100689.20
2018-07-23T17:03:30.478Z,100686.62
2018-07-23T17:06:04.055Z,100690.92
2018-07-23T17:08:37.418Z,100689.59
2018-07-23T17:11:10.782Z,100694.21
2018-07-23T17:13:44.255Z,100693.84
2018-07-23T17:16:17.678Z,100690.70
2018-07-23T17:18:51.045Z,100694.47
2018-07-23T17:21:24.481Z,100694.31
2018-07-23T17:23:57.816Z,100691.31
2018-07-23T17:26:31.395Z,100691.13
2018-07-23T17:29:04.746Z,100700.52
2018-07-23T17:31:38.142Z,100696.23
2018-07-23T17:34:11.534Z,100706.62
2018-07-23T17:36:44.917Z,100709.11
2018-07-23T17:39:18.279Z,100712.84
2018-07-23T17:41:51.653Z,100710.08
2018-07-23T17:44:25.003Z,100712.06
2018-07-23T17:46:58.387Z,100709.23
2018-07-23T17:49:31.747Z,100708.52
2018-07-23T17:52:05.178Z,100716.20
2018-07-23T17:54:39.125Z,100713.63
2018-07-23T17:57:12.528Z,100710.82
2018-07-23T17:59:45.889Z,100715.88
2018-07-23T18:02:20.215Z,100709.90
2018-07-23T18:04:53.974Z,100708.99
2018-07-23T18:07:28.231Z,100714.86
2018-07-23T18:10:02.433Z,100712.64
2018-07-23T18:12:36.555Z,100717.18
2018-07-23T18:15:12.137Z,100716.09
2018-07-23T18:17:45.659Z,100718.14
2018-07-23T18:20:19.112Z,100718.06
2018-07-23T18:22:52.896Z,100724.73
2018-07-23T18:25:26.642Z,100727.46
2018-07-23T18:28:00.446Z,100723.93
2018-07-23T18:30:33.841Z,100725.83
2018-07-23T18:33:07.263Z,100721.08
2018-07-23T18:35:40.695Z,100722.43
2018-07-23T18:38:14.517Z,100722.84
2018-07-23T18:40:48.268Z,100722.00
2018-07-23T18:43:22.187Z,100727.56
2018-07-23T18:45:56.076Z,100726.34
2018-07-23T18:49:53.779Z,100729.64
2018-07-23T18:52:28.323Z,100732.16
2018-07-23T18:55:02.840Z,100725.05
2018-07-23T18:57:36.402Z,100740.09
2018-07-23T19:00:10.212Z,100733.64
2018-07-23T19:02:43.586Z,100732.14
2018-07-23T19:05:16.979Z,100736.11
2018-07-23T19:07:50.351Z,100736.23
2018-07-23T19:10:23.756Z,100745.45
2018-07-23T19:12:57.112Z,100745.87
2018-07-23T19:15:30.588Z,100744.19
2018-07-23T19:18:03.995Z,100746.68
2018-07-23T19:20:37.391Z,100747.60
2018-07-23T19:23:10.763Z,100754.33
2018-07-23T19:25:44.161Z,100755.49
2018-07-23T19:28:17.531Z,100759.22
2018-07-23T19:30:51.000Z,100762.70
2018-07-23T19:33:24.385Z,100761.71
2018-07-23T19:35:57.840Z,100766.90
2018-07-23T19:38:31.247Z,100777.14
2018-07-23T19:41:04.703Z,100773.51
2018-07-23T19:43:38.838Z,100778.65
2018-07-23T19:46:12.508Z,100777.73
2018-07-23T19:48:45.955Z,100779.63
2018-07-23T19:51:19.336Z,100785.95
2018-07-23T19:53:52.700Z,100786.57
2018-07-23T19:56:26.085Z,100780.30
2018-07-23T19:58:59.463Z,100784.23
2018-07-23T20:01:33.099Z,100792.50
2018-07-23T20:04:06.676Z,100788.34
2018-07-23T20:06:40.132Z,100789.16
2018-07-23T20:09:13.653Z,100798.68
2018-07-23T20:11:47.039Z,100791.52
2018-07-23T20:14:20.498Z,100789.62
2018-07-23T20:16:53.896Z,100789.59
2018-07-23T20:19:27.450Z,100796.22
2018-07-23T20:22:00.856Z,100789.64
2018-07-23T20:24:35.297Z,100792.95
2018-07-23T20:27:08.715Z,100796.36
2018-07-23T20:29:42.153Z,100798.67
2018-07-23T20:32:16.636Z,100797.59
2018-07-23T20:34:50.058Z,100802.16
2018-07-23T20:37:24.107Z,100796.63
2018-07-23T20:39:57.528Z,100797.78
2018-07-23T20:42:31.255Z,100799.58
2018-07-23T20:45:05.115Z,100800.04
2018-07-23T20:47:38.591Z,100792.38
2018-07-23T20:50:12.018Z,100791.95
2018-07-23T20:52:45.837Z,100795.39
2018-07-23T20:55:19.251Z,100788.59
2018-07-23T20:57:52.726Z,100793.13
2018-07-23T21:00:26.160Z,100793.75
2018-07-23T21:02:59.544Z,100792.89
2018-07-23T21:05:33.334Z,100792.95
2018-07-23T21:08:06.852Z,100793.55
2018-07-23T21:10:40.226Z,100799.20
2018-07-23T21:13:13.629Z,100799.25
2018-07-23T21:15:47.053Z,100801.30
2018-07-23T21:18:20.499Z,100801.70
2018-07-23T21:20:53.927Z,100808.85
2018-07-23T21:23:27.368Z,100803.61
2018-07-23T21:26:00.867Z,100796.47
2018-07-23T21:28:34.288Z,100805.38
2018-07-23T21:31:08.147Z,100808.53
2018-07-23T21:33:41.555Z,100803.53
2018-07-23T21:36:14.964Z,100809.71
2018-07-23T21:38:48.365Z,100804.16
2018-07-23T21:41:21.761Z,100816.09
2018-07-23T21:43:55.199Z,100813.25
2018-07-23T21:46:28.624Z,100818.21
2018-07-23T21:49:02.104Z,100813.28
2018-07-23T21:51:35.510Z,100819.54
2018-07-23T21:54:09.000Z,100824.54
2018-07-23T21:56:42.371Z,100816.77
2018-07-23T21:59:15.850Z,100819.66
2018-07-23T22:01:49.269Z,100822.09
2018-07-23T22:04:22.666Z,100823.58
2018-07-23T22:06:56.045Z,100820.89
2018-07-23T22:09:29.496Z,100830.87
2018-07-23T22:12:02.953Z,100833.73
2018-07-23T22:14:36.360Z,100830.88
2018-07-23T22:17:09.771Z,100835.80
2018-07-23T22:19:43.196Z,100838.95
2018-07-23T22:22:16.581Z,100844.52
2018-07-23T22:24:50.021Z,100846.67
2018-07-23T22:27:23.503Z,100844.77
2018-07-23T22:29:56.885Z,100837.73
2018-07-23T22:32:30.325Z,100845.06
2018-07-23T22:35:03.741Z,100841.41
2018-07-23T22:37:37.207Z,100837.91
2018-07-23T22:40:10.563Z,100846.23
2018-07-23T22:42:44.009Z,100849.29
2018-07-23T22:45:17.402Z,100849.83
2018-07-23T22:47:50.787Z,100850.77
2018-07-23T22:50:24.205Z,100845.45
2018-07-23T22:52:57.711Z,100842.50
2018-07-23T22:55:31.085Z,100836.36
2018-07-23T22:58:04.817Z,100839.89
2018-07-23T23:00:38.219Z,100839.41
2018-07-23T23:03:11.594Z,100835.03
2018-07-23T23:05:44.984Z,100837.16
2018-07-23T23:08:18.431Z,100838.92
2018-07-23T23:10:51.839Z,100837.26
2018-07-23T23:13:25.268Z,100836.42
2018-07-23T23:15:58.736Z,100841.03
2018-07-23T23:18:32.191Z,100839.67
2018-07-23T23:21:05.589Z,100839.95
2018-07-23T23:23:39.083Z,100833.59
2018-07-23T23:26:12.455Z,100832.83
2018-07-23T23:28:45.836Z,100826.91
2018-07-23T23:31:19.214Z,100830.67
2018-07-23T23:33:52.609Z,100831.95
2018-07-23T23:36:26.007Z,100836.54
2018-07-23T23:38:59.433Z,100838.94
2018-07-23T23:41:32.825Z,100838.44
2018-07-23T23:44:06.257Z,100834.75
2018-07-23T23:46:39.697Z,100835.28
2018-07-23T23:49:13.079Z,100840.17
2018-07-23T23:51:46.459Z,100839.14
2018-07-23T23:54:19.859Z,100831.69
2018-07-23T23:56:53.252Z,100823.34
2018-07-23T23:59:26.660Z,100825.73
